createdAt,value
2023-02-15T00:01:53.685Z,11.17
2023-02-15T00:04:24.355Z,10.97
2023-02-15T00:06:51.102Z,11.60
2023-02-15T00:09:17.730Z,11.57
2023-02-15T00:11:45.918Z,11.50
2023-02-15T00:14:14.375Z,11.83
2023-02-15T00:16:41.714Z,12.20
2023-02-15T00:19:08.648Z,12.13
2023-02-15T00:21:35.751Z,12.13
2023-02-15T00:24:03.214Z,13.40
2023-02-15T00:26:30.125Z,13.40
2023-02-15T00:28:57.218Z,13.70
2023-02-15T00:31:23.958Z,14.57
2023-02-15T00:33:50.605Z,13.23
2023-02-15T00:36:17.331Z,13.10
2023-02-15T00:38:43.931Z,13.30
2023-02-15T00:41:10.788Z,12.50
2023-02-15T00:43:37.511Z,12.00
2023-02-15T00:46:05.437Z,12.87
2023-02-15T00:48:32.136Z,12.97
2023-02-15T00:50:59.645Z,12.13
2023-02-15T00:53:26.859Z,12.07
2023-02-15T00:55:53.667Z,12.83
2023-02-15T00:58:20.286Z,12.47
2023-02-15T01:00:47.426Z,12.23
2023-02-15T01:03:14.871Z,12.67
2023-02-15T01:05:41.590Z,12.20
2023-02-15T01:08:08.207Z,12.40
2023-02-15T01:10:35.180Z,13.10
2023-02-15T01:13:01.763Z,13.10
2023-02-15T01:15:28.496Z,12.83
2023-02-15T01:17:55.137Z,11.07
2023-02-15T01:20:22.827Z,11.67
2023-02-15T01:22:50.825Z,11.40
2023-02-15T01:25:18.407Z,11.53
2023-02-15T01:27:45.304Z,12.10
2023-02-15T01:30:12.552Z,12.67
2023-02-15T01:32:39.204Z,12.43
2023-02-15T01:35:06.184Z,12.13
2023-02-15T01:37:33.217Z,11.73
2023-02-15T01:40:01.054Z,11.77
2023-02-15T01:42:28.594Z,11.93
2023-02-15T01:45:02.909Z,12.87
2023-02-15T01:47:35.667Z,12.90
2023-02-15T01:50:08.585Z,12.23
2023-02-15T01:52:36.763Z,13.07
2023-02-15T01:55:03.802Z,13.33
2023-02-15T01:57:30.757Z,12.87
2023-02-15T01:59:59.394Z,12.20
2023-02-15T02:02:26.065Z,12.83
2023-02-15T02:04:54.074Z,13.53
2023-02-15T02:07:21.651Z,12.87
2023-02-15T02:09:48.921Z,12.20
2023-02-15T02:12:18.788Z,13.13
2023-02-15T02:14:45.585Z,13.07
2023-02-15T02:17:21.125Z,13.87
2023-02-15T02:20:02.771Z,13.90
2023-02-15T02:22:38.310Z,12.83
2023-02-15T02:25:22.980Z,13.60
2023-02-15T02:27:59.828Z,13.73
2023-02-15T02:30:36.322Z,12.63
2023-02-15T02:33:28.724Z,12.77
2023-02-15T02:36:07.730Z,12.63
2023-02-15T02:39:03.434Z,12.63
2023-02-15T02:41:52.727Z,12.00
2023-02-15T02:44:47.896Z,11.87
2023-02-15T02:47:25.095Z,11.80
2023-02-15T02:50:00.395Z,12.37
2023-02-15T02:52:36.571Z,11.80
2023-02-15T02:55:04.780Z,11.60
2023-02-15T02:57:31.362Z,12.80
2023-02-15T02:59:57.977Z,12.73
2023-02-15T03:02:27.067Z,12.97
2023-02-15T03:05:04.302Z,13.60
2023-02-15T03:07:31.740Z,12.43
2023-02-15T03:09:59.303Z,12.80
2023-02-15T03:12:31.524Z,13.10
2023-02-15T03:15:04.736Z,14.03
2023-02-15T03:17:33.106Z,14.13
2023-02-15T03:20:02.188Z,13.37
2023-02-15T03:23:02.620Z,13.13
2023-02-15T03:25:33.668Z,13.17
2023-02-15T03:28:02.825Z,13.57
2023-02-15T03:30:29.598Z,15.10
2023-02-15T03:32:56.216Z,14.43
2023-02-15T03:35:24.076Z,16.00
2023-02-15T03:37:59.866Z,15.03
2023-02-15T03:40:50.238Z,15.23
2023-02-15T03:43:26.164Z,16.03
2023-02-15T03:45:56.778Z,15.13
2023-02-15T03:48:32.897Z,13.80
2023-02-15T03:51:29.149Z,14.93
2023-02-15T03:53:55.779Z,14.57
2023-02-15T03:56:22.470Z,14.53
2023-02-15T03:59:07.430Z,14.10
2023-02-15T04:01:58.005Z,14.27
2023-02-15T04:04:46.422Z,13.93
2023-02-15T04:07:13.196Z,14.10
2023-02-15T04:09:58.284Z,13.90
2023-02-15T04:12:24.950Z,12.63
2023-02-15T04:15:09.920Z,13.40
2023-02-15T04:17:38.096Z,14.37
2023-02-15T04:20:23.637Z,13.73
2023-02-15T04:23:08.518Z,13.67
2023-02-15T04:25:35.127Z,13.17
2023-02-15T04:28:02.072Z,13.43
2023-02-15T04:30:28.804Z,13.63
2023-02-15T04:32:56.311Z,14.03
2023-02-15T04:35:23.336Z,13.77
2023-02-15T04:37:49.996Z,12.67
2023-02-15T04:40:19.177Z,12.53
2023-02-15T04:42:49.223Z,12.50
2023-02-15T04:45:15.948Z,12.53
2023-02-15T04:47:42.631Z,12.30
2023-02-15T04:50:09.568Z,12.37
2023-02-15T04:52:36.190Z,12.27
2023-02-15T04:55:02.952Z,11.53
2023-02-15T04:57:29.605Z,11.30
2023-02-15T04:59:56.534Z,12.93
2023-02-15T05:02:23.124Z,11.93
2023-02-15T05:04:49.788Z,12.20
2023-02-15T05:07:16.374Z,11.77
2023-02-15T05:09:43.050Z,11.30
2023-02-15T05:12:09.645Z,11.30
2023-02-15T05:14:36.243Z,10.53
2023-02-15T05:17:04.132Z,11.07
2023-02-15T05:19:30.749Z,10.47
2023-02-15T05:21:57.365Z,9.47
2023-02-15T05:24:42.855Z,9.63
2023-02-15T05:27:30.418Z,10.30
2023-02-15T05:29:57.079Z,10.70
2023-02-15T05:32:23.857Z,9.73
2023-02-15T05:34:50.578Z,9.83
2023-02-15T05:37:17.418Z,9.73
2023-02-15T05:39:44.052Z,9.63
2023-02-15T05:42:10.645Z,10.10
2023-02-15T05:44:37.246Z,9.87
2023-02-15T05:47:03.934Z,12.30
2023-02-15T05:49:31.484Z,11.90
2023-02-15T05:51:58.487Z,11.63
2023-02-15T05:54:25.150Z,11.23
2023-02-15T05:56:51.773Z,10.40
2023-02-15T05:59:18.453Z,9.50
2023-02-15T06:01:45.078Z,9.20
2023-02-15T06:04:11.670Z,8.90
2023-02-15T06:06:38.282Z,9.00
2023-02-15T06:09:04.883Z,8.13
2023-02-15T06:11:31.512Z,8.23
2023-02-15T06:13:58.095Z,7.40
2023-02-15T06:16:24.699Z,7.13
2023-02-15T06:18:53.463Z,6.60
2023-02-15T06:21:20.388Z,6.87
2023-02-15T06:23:47.019Z,6.20
2023-02-15T06:26:13.683Z,6.53
2023-02-15T06:28:42.028Z,6.90
2023-02-15T06:31:08.800Z,6.63
2023-02-15T06:33:35.604Z,7.50
2023-02-15T06:36:02.918Z,7.70
2023-02-15T06:38:29.718Z,7.03
2023-02-15T06:40:56.346Z,7.90
2023-02-15T06:43:22.973Z,7.57
2023-02-15T06:45:49.597Z,7.60
2023-02-15T06:48:16.179Z,7.17
2023-02-15T06:50:42.846Z,7.27
2023-02-15T06:53:09.582Z,7.57
2023-02-15T06:55:36.243Z,7.60
2023-02-15T06:58:02.840Z,7.27
2023-02-15T07:00:29.462Z,7.43
2023-02-15T07:02:56.741Z,7.53
2023-02-15T07:05:23.590Z,8.00
2023-02-15T07:07:50.342Z,8.20
2023-02-15T07:10:17.000Z,8.23
2023-02-15T07:12:43.786Z,7.53
2023-02-15T07:15:11.531Z,7.73
2023-02-15T07:17:38.203Z,8.20
2023-02-15T07:20:15.624Z,7.70
2023-02-15T07:22:42.249Z,8.10
2023-02-15T07:25:10.363Z,7.50
2023-02-15T07:27:37.117Z,7.50
2023-02-15T07:30:05.429Z,7.70
2023-02-15T07:32:32.591Z,6.90
2023-02-15T07:34:59.382Z,6.80
2023-02-15T07:37:26.321Z,6.50
2023-02-15T07:39:53.023Z,6.33
2023-02-15T07:42:20.866Z,5.80
2023-02-15T07:44:47.748Z,5.80
2023-02-15T07:47:14.520Z,5.93
2023-02-15T07:49:41.199Z,5.70
2023-02-15T07:52:07.830Z,5.53
2023-02-15T07:54:34.525Z,5.50
2023-02-15T07:57:02.083Z,5.60
2023-02-15T07:59:28.790Z,5.37
2023-02-15T08:01:57.192Z,4.90
2023-02-15T08:04:24.132Z,4.87
2023-02-15T08:06:52.876Z,5.03
2023-02-15T08:09:19.554Z,5.00
2023-02-15T08:11:46.268Z,5.57
2023-02-15T08:14:13.508Z,5.90
2023-02-15T08:16:44.034Z,6.60
2023-02-15T08:19:16.410Z,7.30
2023-02-15T08:21:45.068Z,7.33
2023-02-15T08:24:12.472Z,7.30
2023-02-15T08:26:41.762Z,7.77
2023-02-15T08:29:10.062Z,7.10
2023-02-15T08:31:38.345Z,7.90
2023-02-15T08:34:05.372Z,7.80
2023-02-15T08:36:32.699Z,6.83
2023-02-15T08:38:59.941Z,6.80
2023-02-15T08:41:28.364Z,7.00
2023-02-15T08:43:55.686Z,6.97
2023-02-15T08:46:24.102Z,7.57
2023-02-15T08:48:50.967Z,7.27
2023-02-15T08:51:21.703Z,6.57
2023-02-15T08:53:55.946Z,6.67
2023-02-15T08:56:27.173Z,7.17
2023-02-15T08:58:54.407Z,7.13
2023-02-15T09:01:22.989Z,8.00
2023-02-15T09:03:51.167Z,8.20
2023-02-15T09:06:18.236Z,8.23
2023-02-15T09:08:45.059Z,8.33
2023-02-15T09:11:14.159Z,7.17
2023-02-15T09:13:40.835Z,6.53
2023-02-15T09:16:08.432Z,6.57
2023-02-15T09:18:38.226Z,7.27
2023-02-15T09:21:09.602Z,7.67
2023-02-15T09:23:36.576Z,7.43
2023-02-15T09:26:07.690Z,7.00
2023-02-15T09:28:34.472Z,7.97
2023-02-15T09:31:08.153Z,8.20
2023-02-15T09:33:35.906Z,7.47
2023-02-15T09:36:03.077Z,7.50
2023-02-15T09:38:29.790Z,7.43
2023-02-15T09:41:12.814Z,8.43
2023-02-15T09:43:57.668Z,7.83
2023-02-15T09:46:49.287Z,8.40
2023-02-15T09:49:38.656Z,8.10
2023-02-15T09:52:11.385Z,7.63
2023-02-15T09:54:44.098Z,9.17
2023-02-15T09:57:19.936Z,8.53
2023-02-15T09:59:52.512Z,7.87
2023-02-15T10:02:25.392Z,8.90
2023-02-15T10:05:08.070Z,8.00
2023-02-15T10:08:00.774Z,8.63
2023-02-15T10:10:52.004Z,8.13
2023-02-15T10:13:18.550Z,8.87
2023-02-15T10:15:56.674Z,8.37
2023-02-15T10:18:43.948Z,7.50
2023-02-15T10:21:46.303Z,9.13
2023-02-15T10:24:19.873Z,7.67
2023-02-15T10:26:50.018Z,8.03
2023-02-15T10:29:25.455Z,7.97
2023-02-15T10:31:58.670Z,8.00
2023-02-15T10:34:36.656Z,7.73
2023-02-15T10:37:06.532Z,8.07
2023-02-15T10:39:59.661Z,7.97
2023-02-15T10:42:37.725Z,8.03
2023-02-15T10:45:16.089Z,7.50
2023-02-15T10:48:14.922Z,7.90
2023-02-15T10:50:49.564Z,7.53
2023-02-15T10:53:48.558Z,8.63
2023-02-15T10:56:36.317Z,7.50
2023-02-15T10:59:11.763Z,7.13
2023-02-15T11:01:41.774Z,7.63
2023-02-15T11:04:17.569Z,6.80
2023-02-15T11:06:49.262Z,7.13
2023-02-15T11:09:18.950Z,8.10
2023-02-15T11:11:47.592Z,7.17
2023-02-15T11:14:59.789Z,7.50
2023-02-15T11:17:38.633Z,6.77
2023-02-15T11:20:25.660Z,7.17
2023-02-15T11:22:54.183Z,7.43
2023-02-15T11:25:26.839Z,7.47
2023-02-15T11:27:53.466Z,6.67
2023-02-15T11:30:29.130Z,6.30
2023-02-15T11:33:00.017Z,7.03
2023-02-15T11:35:36.736Z,6.10
2023-02-15T11:38:19.672Z,7.07
2023-02-15T11:41:02.583Z,6.20
2023-02-15T11:43:55.192Z,6.20
2023-02-15T11:46:22.683Z,6.63
2023-02-15T11:48:49.317Z,5.87
2023-02-15T11:51:18.395Z,6.23
2023-02-15T11:53:45.558Z,6.30
2023-02-15T11:56:16.123Z,6.43
2023-02-15T11:58:55.457Z,6.50
2023-02-15T12:01:44.940Z,6.10
2023-02-15T12:04:22.713Z,5.53
2023-02-15T12:07:08.736Z,5.50
2023-02-15T12:09:44.645Z,5.43
2023-02-15T12:12:22.547Z,6.23
2023-02-15T12:14:53.248Z,6.57
2023-02-15T12:17:21.964Z,6.00
2023-02-15T12:19:51.541Z,6.73
2023-02-15T12:22:24.656Z,6.10
2023-02-15T12:24:52.180Z,5.87
2023-02-15T12:27:22.021Z,5.40
2023-02-15T12:29:52.921Z,5.37
2023-02-15T12:32:27.540Z,5.20
2023-02-15T12:34:58.186Z,6.37
2023-02-15T12:37:28.244Z,6.00
2023-02-15T12:39:59.459Z,7.17
2023-02-15T12:42:26.992Z,6.50
2023-02-15T12:45:04.899Z,6.43
2023-02-15T12:47:32.223Z,5.93
2023-02-15T12:50:24.224Z,6.27
2023-02-15T12:52:51.809Z,6.87
2023-02-15T12:55:27.143Z,6.37
2023-02-15T12:58:16.941Z,7.13
2023-02-15T13:00:43.702Z,6.70
2023-02-15T13:03:20.584Z,7.47
2023-02-15T13:05:52.301Z,7.00
2023-02-15T13:08:21.479Z,7.50
2023-02-15T13:11:04.571Z,7.43
2023-02-15T13:13:32.933Z,6.43
2023-02-15T13:16:03.736Z,6.80
2023-02-15T13:18:34.717Z,5.90
2023-02-15T13:21:21.057Z,6.50
2023-02-15T13:23:50.368Z,5.90
2023-02-15T13:26:19.662Z,6.63
2023-02-15T13:28:48.561Z,6.47
2023-02-15T13:31:23.654Z,6.53
2023-02-15T13:33:56.113Z,6.30
2023-02-15T13:36:42.396Z,5.60
2023-02-15T13:39:41.607Z,6.47
2023-02-15T13:42:29.880Z,5.70
2023-02-15T13:45:31.520Z,5.60
2023-02-15T13:48:06.956Z,5.30
2023-02-15T13:50:42.588Z,4.93
2023-02-15T13:53:32.273Z,4.70
2023-02-15T13:56:10.042Z,5.73
2023-02-15T13:58:53.768Z,5.60
2023-02-15T14:01:45.861Z,5.87
2023-02-15T14:04:34.373Z,5.33
2023-02-15T14:07:10.555Z,5.60
2023-02-15T14:09:49.192Z,5.77
2023-02-15T14:12:46.658Z,5.87
2023-02-15T14:15:15.153Z,5.70
2023-02-15T14:17:48.076Z,5.40
2023-02-15T14:20:43.533Z,5.37
2023-02-15T14:23:30.728Z,5.63
2023-02-15T14:26:10.847Z,5.37
2023-02-15T14:28:58.543Z,5.37
2023-02-15T14:31:31.925Z,5.67
2023-02-15T14:33:59.419Z,5.33
2023-02-15T14:36:26.413Z,7.07
2023-02-15T14:39:34.809Z,7.03
2023-02-15T14:42:05.865Z,6.87
2023-02-15T14:44:46.372Z,6.00
2023-02-15T14:47:16.067Z,7.20
2023-02-15T14:49:42.689Z,6.17
2023-02-15T14:52:11.652Z,5.63
2023-02-15T14:54:38.231Z,5.40
2023-02-15T14:57:07.328Z,5.20
2023-02-15T14:59:46.146Z,5.77
2023-02-15T15:02:19.668Z,6.37
2023-02-15T15:04:54.191Z,5.33
2023-02-15T15:07:23.100Z,5.40
2023-02-15T15:10:00.019Z,6.23
2023-02-15T15:12:26.597Z,5.80
2023-02-15T15:14:54.349Z,6.27
2023-02-15T15:17:38.719Z,5.83
2023-02-15T15:20:27.897Z,5.40
2023-02-15T15:23:16.403Z,5.33
2023-02-15T15:25:46.145Z,5.53
2023-02-15T15:28:34.995Z,5.47
2023-02-15T15:31:10.218Z,5.53
2023-02-15T15:34:00.968Z,5.20
2023-02-15T15:36:32.980Z,5.80
2023-02-15T15:39:18.217Z,5.50
2023-02-15T15:41:51.199Z,5.33
2023-02-15T15:44:20.514Z,5.43
2023-02-15T15:47:10.703Z,4.77
2023-02-15T15:49:38.197Z,5.50
2023-02-15T15:52:15.522Z,5.27
2023-02-15T15:54:42.282Z,5.53
2023-02-15T15:57:21.071Z,5.90
2023-02-15T15:59:47.682Z,6.40
2023-02-15T16:02:19.128Z,6.60
2023-02-15T16:04:47.041Z,7.47
2023-02-15T16:07:19.749Z,6.20
2023-02-15T16:10:05.002Z,6.27
2023-02-15T16:12:35.837Z,6.70
2023-02-15T16:15:16.405Z,6.50
2023-02-15T16:17:44.826Z,5.90
2023-02-15T16:20:37.007Z,6.30
2023-02-15T16:23:03.572Z,5.77
2023-02-15T16:25:56.166Z,6.20
2023-02-15T16:28:22.774Z,5.33
2023-02-15T16:31:04.797Z,6.33
2023-02-15T16:33:38.768Z,6.37
2023-02-15T16:36:08.692Z,6.40
2023-02-15T16:38:44.384Z,6.13
2023-02-15T16:41:14.755Z,6.63
2023-02-15T16:43:42.290Z,5.47
2023-02-15T16:46:12.730Z,6.00
2023-02-15T16:48:47.399Z,6.10
2023-02-15T16:51:21.838Z,5.87
2023-02-15T16:53:51.543Z,6.13
2023-02-15T16:56:18.729Z,5.37
2023-02-15T16:58:46.071Z,6.43
2023-02-15T17:01:14.631Z,6.10
2023-02-15T17:03:41.983Z,7.30
2023-02-15T17:06:30.351Z,7.10
2023-02-15T17:09:07.710Z,8.03
2023-02-15T17:11:41.683Z,9.13
2023-02-15T17:14:10.016Z,8.73
2023-02-15T17:16:37.452Z,9.40
2023-02-15T17:19:10.202Z,8.17
2023-02-15T17:21:42.531Z,9.07
2023-02-15T17:24:24.275Z,8.37
2023-02-15T17:26:52.908Z,8.00
2023-02-15T17:29:40.084Z,7.70
2023-02-15T17:32:13.370Z,7.47
2023-02-15T17:34:44.827Z,7.30
2023-02-15T17:37:34.784Z,6.87
2023-02-15T17:40:02.831Z,6.83
2023-02-15T17:42:29.508Z,8.20
2023-02-15T17:44:56.146Z,7.27
2023-02-15T17:47:25.544Z,9.40
2023-02-15T17:49:52.340Z,8.70
2023-02-15T17:52:19.093Z,9.50
2023-02-15T17:55:04.139Z,8.23
2023-02-15T17:57:31.147Z,8.40
2023-02-15T18:00:16.533Z,8.87
2023-02-15T18:03:01.579Z,9.00
2023-02-15T18:05:46.660Z,8.57
2023-02-15T18:08:36.753Z,7.90
2023-02-15T18:11:22.265Z,7.17
2023-02-15T18:13:48.875Z,7.17
2023-02-15T18:16:17.555Z,8.00
2023-02-15T18:18:44.604Z,7.43
2023-02-15T18:21:12.346Z,7.50
2023-02-15T18:23:39.580Z,8.00
2023-02-15T18:26:06.436Z,9.17
2023-02-15T18:28:33.149Z,7.63
2023-02-15T18:31:00.611Z,7.90
2023-02-15T18:33:39.374Z,8.37
2023-02-15T18:36:08.237Z,8.17
2023-02-15T18:38:34.862Z,8.00
2023-02-15T18:41:04.751Z,7.97
2023-02-15T18:43:31.773Z,9.13
2023-02-15T18:45:58.441Z,9.77
2023-02-15T18:48:25.071Z,9.23
2023-02-15T18:50:51.830Z,8.43
2023-02-15T18:53:20.088Z,7.50
2023-02-15T18:55:46.773Z,8.50
2023-02-15T18:58:18.036Z,8.43
2023-02-15T19:00:45.484Z,8.63
2023-02-15T19:03:13.494Z,8.63
2023-02-15T19:05:44.888Z,7.90
2023-02-15T19:08:19.655Z,8.50
2023-02-15T19:10:46.607Z,8.33
2023-02-15T19:13:13.467Z,8.40
2023-02-15T19:15:40.481Z,8.40
2023-02-15T19:18:07.088Z,8.40
2023-02-15T19:20:37.444Z,8.30
2023-02-15T19:23:04.092Z,8.13
2023-02-15T19:25:31.764Z,8.87
2023-02-15T19:27:58.370Z,9.07
2023-02-15T19:30:29.929Z,9.33
2023-02-15T19:32:57.382Z,8.63
2023-02-15T19:35:26.082Z,8.93
2023-02-15T19:37:53.767Z,9.30
2023-02-15T19:40:30.774Z,9.80
2023-02-15T19:42:57.416Z,10.57
2023-02-15T19:45:29.205Z,9.83
2023-02-15T19:47:55.995Z,9.13
2023-02-15T19:50:26.594Z,8.73
2023-02-15T19:52:53.214Z,9.40
2023-02-15T19:55:25.975Z,8.07
2023-02-15T19:57:52.991Z,9.07
2023-02-15T20:00:27.340Z,9.40
2023-02-15T20:02:54.105Z,9.73
2023-02-15T20:05:20.746Z,9.40
2023-02-15T20:07:48.801Z,9.37
2023-02-15T20:10:15.619Z,9.03
2023-02-15T20:12:42.717Z,8.83
2023-02-15T20:15:29.603Z,8.87
2023-02-15T20:17:57.155Z,9.87
2023-02-15T20:20:31.508Z,10.07
2023-02-15T20:22:58.296Z,10.30
2023-02-15T20:25:29.133Z,10.10
2023-02-15T20:27:57.463Z,10.70
2023-02-15T20:30:25.927Z,10.50
2023-02-15T20:32:52.699Z,9.87
2023-02-15T20:35:23.640Z,10.00
2023-02-15T20:37:54.524Z,9.97
2023-02-15T20:40:31.979Z,10.17
2023-02-15T20:42:59.024Z,9.73
2023-02-15T20:45:32.892Z,10.00
2023-02-15T20:48:01.447Z,10.00
2023-02-15T20:50:32.209Z,9.33
2023-02-15T20:52:59.682Z,9.47
2023-02-15T20:55:28.901Z,9.17
2023-02-15T20:57:56.023Z,9.30
2023-02-15T21:00:24.240Z,9.70
2023-02-15T21:02:52.227Z,9.30
2023-02-15T21:05:20.847Z,9.13
2023-02-15T21:07:47.862Z,8.93
2023-02-15T21:10:22.217Z,9.27
2023-02-15T21:12:48.989Z,9.13
2023-02-15T21:15:36.592Z,9.00
2023-02-15T21:18:07.609Z,9.47
2023-02-15T21:20:34.211Z,11.00
2023-02-15T21:23:02.836Z,10.47
2023-02-15T21:25:31.705Z,10.27
2023-02-15T21:27:58.357Z,10.07
2023-02-15T21:30:25.359Z,9.73
2023-02-15T21:32:52.057Z,9.83
2023-02-15T21:35:18.935Z,8.73
2023-02-15T21:37:46.230Z,9.13
2023-02-15T21:40:23.164Z,8.90
2023-02-15T21:43:08.026Z,9.63
2023-02-15T21:45:53.096Z,8.90
2023-02-15T21:48:21.718Z,8.87
2023-02-15T21:51:09.987Z,8.87
2023-02-15T21:53:39.520Z,7.77
2023-02-15T21:56:06.458Z,8.23
2023-02-15T21:58:35.756Z,9.10
2023-02-15T22:01:03.022Z,8.33
2023-02-15T22:03:32.878Z,8.63
2023-02-15T22:05:59.600Z,8.50
2023-02-15T22:08:26.316Z,8.73
2023-02-15T22:10:56.412Z,9.30
2023-02-15T22:13:30.891Z,8.20
2023-02-15T22:15:58.380Z,8.50
2023-02-15T22:18:26.691Z,8.07
2023-02-15T22:20:53.683Z,7.30
2023-02-15T22:23:20.489Z,7.60
2023-02-15T22:25:56.477Z,7.90
2023-02-15T22:28:31.858Z,8.03
2023-02-15T22:30:58.517Z,7.77
2023-02-15T22:33:27.523Z,7.80
2023-02-15T22:35:54.289Z,8.50
2023-02-15T22:38:21.009Z,8.73
2023-02-15T22:40:48.687Z,8.70
2023-02-15T22:43:37.590Z,8.07
2023-02-15T22:46:06.286Z,8.33
2023-02-15T22:48:32.906Z,8.60
2023-02-15T22:50:59.583Z,9.20
2023-02-15T22:53:26.247Z,9.37
2023-02-15T22:55:53.041Z,9.23
2023-02-15T22:58:25.316Z,9.67
2023-02-15T23:00:51.980Z,9.50
2023-02-15T23:03:23.440Z,9.27
2023-02-15T23:05:50.214Z,9.87
2023-02-15T23:08:16.994Z,9.10
2023-02-15T23:10:44.958Z,8.50
2023-02-15T23:13:25.602Z,8.73
2023-02-15T23:16:14.126Z,8.67
2023-02-15T23:18:41.790Z,9.00
2023-02-15T23:21:30.407Z,8.23
2023-02-15T23:24:23.439Z,8.73
2023-02-15T23:26:50.175Z,8.60
2023-02-15T23:29:18.471Z,8.37
2023-02-15T23:31:46.947Z,8.23
2023-02-15T23:34:21.950Z,9.57
2023-02-15T23:36:48.573Z,8.97
2023-02-15T23:39:35.635Z,9.37
2023-02-15T23:42:13.050Z,8.40
2023-02-15T23:44:40.489Z,8.77
2023-02-15T23:47:09.696Z,8.90
2023-02-15T23:49:36.298Z,8.70
2023-02-15T23:52:02.900Z,9.23
2023-02-15T23:54:29.528Z,10.30
2023-02-15T23:56:59.418Z,9.63
2023-02-15T23:59:28.544Z,9.53
